CST,Max TemperatureF,Mean TemperatureF,Min TemperatureF,Max Dew PointF,MeanDew PointF,Min DewpointF,Max Humidity, Mean Humidity, Min Humidity, Max Sea Level PressureIn, Mean Sea Level PressureIn, Min Sea Level PressureIn, Max VisibilityMiles, Mean VisibilityMiles, Min VisibilityMiles, Max Wind SpeedMPH, Mean Wind SpeedMPH, Max Gust SpeedMPH,PrecipitationIn, CloudCover, Events, WindDirDegrees
2012-12-1,80,72,64,70,67,64,100,81,61,30.11,30.07,30.03,7,7,7,10,5,,0.00,4,,29
2012-12-2,80,76,71,70,67,64,88,75,58,30.14,30.09,30.05,7,7,7,12,5,,0.00,3,,58
2012-12-3,82,76,71,68,65,63,83,65,51,30.12,30.07,30.04,7,7,7,13,6,,0.00,2,,85
2012-12-4,82,78,71,66,63,61,73,64,51,30.15,30.08,30.04,7,7,7,12,8,,0.00,3,,76
2012-12-5,82,72,62,64,62,61,94,74,48,30.10,30.03,29.98,7,7,7,8,2,,0.00,2,,25
2012-12-6,80,70,60,66,62,59,94,79,54,30.02,29.95,29.90,7,7,7,8,4,,0.00,1,,347
2012-12-7,82,70,59,66,63,57,100,80,54,29.98,29.93,29.88,7,7,7,10,3,,0.00,2,,67
2012-12-8,82,70,59,66,64,57,100,81,54,30.01,29.95,29.89,7,7,7,10,3,,0.00,2,,90
2012-12-9,84,72,60,75,68,59,100,84,48,30.03,29.96,29.92,7,6,2,12,4,,1.05,4,Rain,99
2012-12-10,84,80,75,75,75,73,100,86,70,29.96,29.90,29.85,7,7,6,16,8,,0.00,4,,156
2012-12-11,82,78,73,77,75,70,100,92,84,29.99,29.92,29.86,7,6,1,16,7,,2.05,6,Rain-Thunderstorm,149
2012-12-12,80,74,69,75,71,68,100,93,83,30.09,30.04,29.96,7,6,2,15,4,17,0.25,6,Rain-Thunderstorm,256
2012-12-13,80,74,69,73,70,68,100,88,70,30.13,30.08,30.03,7,7,6,13,6,,0.00,5,,349
2012-12-14,78,70,62,68,63,59,100,80,57,30.12,30.06,30.02,8,7,7,10,5,,0.00,3,,346
2012-12-15,80,68,57,70,64,57,100,80,61,30.05,29.99,29.94,8,8,7,12,3,,0.00,4,,96
2012-12-16,80,71,62,68,65,61,94,77,58,29.98,29.94,29.90,7,7,7,14,6,,0.00,2,,123
2012-12-17,82,74,66,72,69,64,100,82,66,29.95,29.91,29.87,8,7,7,16,7,,0.00,4,,131
2012-12-18,82,76,69,73,71,68,94,83,70,30.01,29.95,29.89,7,7,7,12,6,,0.00,4,,92
2012-12-19,82,78,75,73,72,70,89,81,70,30.03,29.97,29.93,7,7,7,13,8,,0.00,4,Rain,114
2012-12-20,82,76,69,72,69,66,100,78,58,30.08,30.00,29.96,7,7,7,15,7,,0.00,2,,108
2012-12-21,77,72,68,70,63,55,100,75,57,30.21,30.12,30.03,7,7,6,14,6,,0.00,4,,8
2012-12-22,75,72,68,59,57,55,68,60,50,30.25,30.19,30.16,7,7,7,14,8,,0.00,3,,41
2012-12-23,75,67,59,59,56,54,88,66,47,30.20,30.12,30.06,7,7,7,13,6,,0.00,1,,66
2012-12-24,78,66,53,61,58,54,100,78,51,30.08,30.01,29.94,8,7,7,10,4,,0.00,3,,86
2012-12-25,80,70,60,68,63,59,100,72,54,29.95,29.89,29.81,7,7,7,17,9,,0.00,3,,144
2012-12-26,82,75,68,73,69,36,94,81,24,30.00,29.92,29.84,7,7,6,10,6,,0.00,5,,1
2012-12-27,80,74,69,73,71,70,100,87,74,30.01,29.95,29.89,7,6,4,10,6,,0.45,6,Rain,61
2012-12-28,82,78,75,75,74,73,94,83,74,29.97,29.92,29.87,7,7,6,18,11,,0.00,4,,141
2012-12-29,84,76,69,75,72,68,100,84,70,30.13,30.02,29.90,7,7,7,9,6,,0.00,4,,82
2012-12-30,77,74,71,66,63,61,78,68,61,30.21,30.16,30.10,7,7,7,13,8,,0.00,5,,41
2012-12-31,78,74,71,66,63,59,83,69,54,30.18,30.11,30.06,7,7,7,9,6,,0.00,3,,85